createdAt,value
2018-06-04T00:01:50.853Z,42.34
2018-06-04T00:04:18.709Z,42.33
2018-06-04T00:06:46.397Z,42.85
2018-06-04T00:09:14.166Z,42.68
2018-06-04T00:11:41.844Z,42.84
2018-06-04T00:14:09.438Z,42.74
2018-06-04T00:16:37.330Z,42.71
2018-06-04T00:19:05.498Z,43.22
2018-06-04T00:21:39.783Z,42.92
2018-06-04T00:24:07.777Z,43.01
2018-06-04T00:26:35.389Z,43.01
2018-06-04T00:29:03.070Z,42.99
2018-06-04T00:31:30.974Z,43.31
2018-06-04T00:33:58.581Z,43.34
2018-06-04T00:36:26.193Z,43.21
2018-06-04T00:38:54.071Z,43.17
2018-06-04T00:41:21.636Z,43.36
2018-06-04T00:43:49.253Z,42.84
2018-06-04T00:46:17.124Z,43.24
2018-06-04T00:48:44.743Z,42.91
2018-06-04T00:51:12.363Z,42.93
2018-06-04T00:53:40.197Z,43.30
2018-06-04T00:56:18.073Z,42.97
2018-06-04T00:58:46.275Z,42.45
2018-06-04T01:01:14.268Z,42.59
2018-06-04T01:03:41.837Z,42.13
2018-06-04T01:06:09.952Z,41.93
2018-06-04T01:08:37.631Z,41.82
2018-06-04T01:11:05.961Z,41.15
2018-06-04T01:13:34.009Z,41.06
2018-06-04T01:16:01.677Z,40.87
2018-06-04T01:18:29.480Z,40.64
2018-06-04T01:20:57.951Z,40.21
2018-06-04T01:23:25.722Z,40.15
2018-06-04T01:25:53.496Z,39.83
2018-06-04T01:28:21.516Z,39.71
2018-06-04T01:30:49.221Z,39.77
2018-06-04T01:33:16.887Z,39.58
2018-06-04T01:35:45.044Z,39.79
2018-06-04T01:38:19.426Z,39.35
2018-06-04T01:40:47.352Z,39.64
2018-06-04T01:43:15.037Z,39.76
2018-06-04T01:45:42.744Z,39.34
2018-06-04T01:48:10.884Z,39.09
2018-06-04T01:50:38.563Z,39.02
2018-06-04T01:53:06.242Z,39.30
2018-06-04T01:55:34.422Z,38.77
2018-06-04T01:58:02.098Z,38.90
2018-06-04T02:00:29.760Z,38.64
2018-06-04T02:02:57.860Z,38.82
2018-06-04T02:05:25.608Z,38.66
2018-06-04T02:07:53.225Z,38.73
2018-06-04T02:10:21.336Z,38.70
2018-06-04T02:12:48.928Z,38.75
2018-06-04T02:15:16.578Z,39.02
2018-06-04T02:17:44.552Z,39.14
2018-06-04T02:20:12.195Z,38.79
2018-06-04T02:22:40.502Z,38.95
2018-06-04T02:25:08.385Z,39.02
2018-06-04T02:27:35.974Z,38.88
2018-06-04T02:30:04.060Z,38.85
2018-06-04T02:32:31.965Z,38.74
2018-06-04T02:34:59.585Z,38.89
2018-06-04T02:37:27.233Z,39.21
2018-06-04T02:39:55.159Z,38.59
2018-06-04T02:42:23.001Z,38.62
2018-06-04T02:44:50.614Z,38.76
2018-06-04T02:47:18.490Z,38.18
2018-06-04T02:49:46.320Z,38.82
2018-06-04T02:52:13.981Z,38.22
2018-06-04T02:54:41.802Z,38.48
2018-06-04T02:57:09.488Z,38.29
2018-06-04T02:59:37.144Z,38.49
2018-06-04T03:02:04.940Z,38.29
2018-06-04T03:04:32.647Z,37.94
2018-06-04T03:07:00.265Z,38.18
2018-06-04T03:09:27.924Z,38.29
2018-06-04T03:11:55.785Z,37.80
2018-06-04T03:14:23.389Z,37.68
2018-06-04T03:16:51.164Z,37.71
2018-06-04T03:19:19.059Z,37.94
2018-06-04T03:21:46.692Z,37.90
2018-06-04T03:24:14.655Z,37.78
2018-06-04T03:26:42.355Z,37.77
2018-06-04T03:29:09.940Z,37.75
2018-06-04T03:31:37.948Z,37.73
2018-06-04T03:34:05.837Z,37.63
2018-06-04T03:36:33.568Z,37.31
2018-06-04T03:39:01.391Z,37.49
2018-06-04T03:41:29.061Z,37.44
2018-06-04T03:43:56.642Z,37.40
2018-06-04T03:46:24.325Z,37.46
2018-06-04T03:48:52.150Z,37.30
2018-06-04T03:51:19.815Z,37.49
2018-06-04T03:53:47.649Z,37.13
2018-06-04T03:56:15.436Z,37.58
2018-06-04T03:58:43.056Z,36.80
2018-06-04T04:01:10.800Z,36.72
2018-06-04T04:03:38.706Z,37.25
2018-06-04T04:06:06.330Z,36.88
2018-06-04T04:08:33.986Z,36.76
2018-06-04T04:11:01.854Z,36.72
2018-06-04T04:13:29.444Z,36.81
2018-06-04T04:15:57.161Z,36.44
2018-06-04T04:18:25.142Z,36.48
2018-06-04T04:20:52.700Z,36.48
2018-06-04T04:23:20.596Z,36.53
2018-06-04T04:25:48.566Z,36.36
2018-06-04T04:28:16.272Z,36.58
2018-06-04T04:30:44.117Z,36.94
2018-06-04T04:33:11.900Z,36.32
2018-06-04T04:35:39.521Z,36.42
2018-06-04T04:38:07.318Z,36.31
2018-06-04T04:40:35.016Z,36.13
2018-06-04T04:43:02.619Z,36.26
2018-06-04T04:45:30.423Z,36.57
2018-06-04T04:47:58.239Z,36.61
2018-06-04T04:50:26.074Z,36.14
2018-06-04T04:52:53.866Z,36.20
2018-06-04T04:55:21.578Z,35.99
2018-06-04T04:57:49.256Z,35.84
2018-06-04T05:00:17.456Z,36.03
2018-06-04T05:02:45.251Z,35.74
2018-06-04T05:05:12.933Z,35.77
2018-06-04T05:07:40.709Z,35.69
2018-06-04T05:10:08.540Z,36.25
2018-06-04T05:12:36.223Z,36.09
2018-06-04T05:15:03.953Z,36.19
2018-06-04T05:17:31.675Z,35.94
2018-06-04T05:19:59.286Z,36.17
2018-06-04T05:22:27.406Z,35.75
2018-06-04T05:24:55.096Z,35.86
2018-06-04T05:27:23.394Z,36.14
2018-06-04T05:29:51.203Z,35.86
2018-06-04T05:32:18.980Z,35.97
2018-06-04T05:34:46.540Z,36.17
2018-06-04T05:37:14.309Z,35.75
2018-06-04T05:39:42.057Z,36.14
2018-06-04T05:42:09.732Z,35.92
2018-06-04T05:44:37.506Z,35.68
2018-06-04T05:47:05.382Z,35.54
2018-06-04T05:49:33.015Z,35.67
2018-06-04T05:52:00.913Z,35.52
2018-06-04T05:54:28.680Z,35.61
2018-06-04T05:56:56.301Z,35.39
2018-06-04T05:59:24.071Z,35.42
2018-06-04T06:01:51.749Z,34.91
2018-06-04T06:04:19.484Z,34.48
2018-06-04T06:06:47.247Z,34.66
2018-06-04T06:09:15.147Z,34.54
2018-06-04T06:11:42.748Z,34.44
2018-06-04T06:14:10.503Z,34.60
2018-06-04T06:16:38.224Z,34.50
2018-06-04T06:19:05.872Z,34.62
2018-06-04T06:21:33.728Z,34.24
2018-06-04T06:24:01.515Z,34.11
2018-06-04T06:26:29.094Z,34.15
2018-06-04T06:28:57.066Z,33.86
2018-06-04T06:31:25.121Z,34.21
2018-06-04T06:33:55.678Z,34.20
2018-06-04T06:36:23.722Z,34.03
2018-06-04T06:38:51.585Z,33.35
2018-06-04T06:41:19.165Z,33.57
2018-06-04T06:43:46.905Z,33.64
2018-06-04T06:46:14.662Z,33.78
2018-06-04T06:48:42.339Z,33.50
2018-06-04T06:51:10.148Z,33.72
2018-06-04T06:53:38.022Z,33.18
2018-06-04T06:56:05.623Z,33.10
2018-06-04T06:58:33.358Z,33.28
2018-06-04T07:01:01.075Z,33.24
2018-06-04T07:03:28.699Z,33.01
2018-06-04T07:05:56.512Z,32.88
2018-06-04T07:08:24.250Z,32.77
2018-06-04T07:10:51.853Z,32.61
2018-06-04T07:13:19.661Z,32.55
2018-06-04T07:15:47.420Z,32.34
2018-06-04T07:18:15.029Z,31.97
2018-06-04T07:20:42.808Z,32.01
2018-06-04T07:23:10.686Z,32.04
2018-06-04T07:25:38.308Z,31.89
2018-06-04T07:28:06.141Z,31.72
2018-06-04T07:30:34.128Z,31.94
2018-06-04T07:33:01.789Z,31.40
2018-06-04T07:35:29.544Z,31.65
2018-06-04T07:37:57.284Z,31.43
2018-06-04T07:40:24.928Z,31.41
2018-06-04T07:42:52.700Z,31.53
2018-06-04T07:45:20.463Z,31.34
2018-06-04T07:47:48.102Z,31.90
2018-06-04T07:50:16.371Z,31.38
2018-06-04T07:52:44.440Z,31.33
2018-06-04T07:55:12.042Z,31.05
2018-06-04T07:57:39.887Z,30.87
2018-06-04T08:00:07.758Z,30.40
2018-06-04T08:02:35.425Z,30.35
2018-06-04T08:05:03.363Z,30.36
2018-06-04T08:07:31.210Z,29.93
2018-06-04T08:09:58.916Z,29.54
2018-06-04T08:12:26.720Z,29.64
2018-06-04T08:14:54.609Z,29.88
2018-06-04T08:17:22.268Z,29.02
2018-06-04T08:19:50.051Z,29.57
2018-06-04T08:22:17.756Z,29.76
2018-06-04T08:24:45.380Z,29.72
2018-06-04T08:27:13.156Z,29.26
2018-06-04T08:29:40.901Z,29.76
2018-06-04T08:32:08.695Z,29.20
2018-06-04T08:34:36.527Z,29.05
2018-06-04T08:37:04.265Z,29.51
2018-06-04T08:39:31.899Z,29.03
2018-06-04T08:41:59.737Z,28.85
2018-06-04T08:44:27.524Z,29.29
2018-06-04T08:46:55.092Z,29.07
2018-06-04T08:49:22.971Z,29.17
2018-06-04T08:51:50.851Z,28.53
2018-06-04T08:54:18.462Z,28.59
2018-06-04T08:56:46.285Z,28.52
2018-06-04T08:59:14.184Z,28.94
2018-06-04T09:01:41.774Z,28.92
2018-06-04T09:04:09.532Z,28.34
2018-06-04T09:06:37.191Z,28.18
2018-06-04T09:09:06.044Z,27.87
2018-06-04T09:11:33.904Z,27.88
2018-06-04T09:14:01.776Z,28.04
2018-06-04T09:16:29.667Z,27.43
2018-06-04T09:18:57.426Z,27.59
2018-06-04T09:21:25.221Z,27.34
2018-06-04T09:23:52.865Z,27.43
2018-06-04T09:26:20.785Z,27.20
2018-06-04T09:28:48.653Z,27.36
2018-06-04T09:31:16.264Z,27.23
2018-06-04T09:33:45.150Z,26.58
2018-06-04T09:36:13.967Z,26.73
2018-06-04T09:38:41.671Z,26.50
2018-06-04T09:41:09.426Z,26.72
2018-06-04T09:43:37.188Z,26.39
2018-06-04T09:46:04.924Z,26.72
2018-06-04T09:49:03.571Z,25.62
2018-06-04T09:51:31.196Z,25.60
2018-06-04T09:53:58.882Z,25.50
2018-06-04T09:56:26.920Z,24.77
2018-06-04T09:58:54.500Z,25.39
2018-06-04T10:01:22.111Z,25.42
2018-06-04T10:03:50.057Z,25.23
2018-06-04T10:06:17.636Z,25.19
2018-06-04T10:08:45.213Z,24.90
2018-06-04T10:11:13.144Z,25.68
2018-06-04T10:13:41.237Z,25.37
2018-06-04T10:16:08.871Z,26.06
2018-06-04T10:18:37.010Z,25.24
2018-06-04T10:21:04.589Z,25.00
2018-06-04T10:23:32.231Z,25.34
2018-06-04T10:26:00.429Z,24.30
2018-06-04T10:28:27.980Z,24.19
2018-06-04T10:30:55.664Z,24.96
2018-06-04T10:33:23.591Z,24.17
2018-06-04T10:35:51.519Z,24.21
2018-06-04T10:38:19.131Z,23.80
2018-06-04T10:40:47.058Z,24.05
2018-06-04T10:43:14.682Z,24.13
2018-06-04T10:45:42.460Z,24.43
2018-06-04T10:48:10.211Z,23.89
2018-06-04T10:50:37.800Z,24.20
2018-06-04T10:53:05.705Z,24.37
2018-06-04T10:55:33.534Z,24.22
2018-06-04T10:58:01.171Z,24.34
2018-06-04T11:00:28.915Z,24.16
2018-06-04T11:02:56.652Z,24.24
2018-06-04T11:05:24.251Z,23.74
2018-06-04T11:07:52.105Z,23.14
2018-06-04T11:10:20.041Z,23.29
2018-06-04T11:12:47.596Z,22.95
2018-06-04T11:15:15.323Z,22.83
2018-06-04T11:17:43.082Z,22.80
2018-06-04T11:20:10.758Z,23.16
2018-06-04T11:22:38.692Z,22.76
2018-06-04T11:25:06.343Z,23.29
2018-06-04T11:27:33.955Z,22.98
2018-06-04T11:30:01.879Z,22.97
2018-06-04T11:32:29.676Z,23.34
2018-06-04T11:34:57.270Z,23.31
2018-06-04T11:37:25.359Z,23.47
2018-06-04T11:39:53.098Z,23.12
2018-06-04T11:42:20.706Z,23.04
2018-06-04T11:44:48.590Z,23.14
2018-06-04T11:47:16.345Z,23.16
2018-06-04T11:49:43.982Z,23.17
2018-06-04T11:52:11.767Z,23.07
2018-06-04T11:54:39.601Z,23.09
2018-06-04T11:57:07.206Z,23.28
2018-06-04T11:59:35.040Z,22.54
2018-06-04T12:02:02.822Z,22.42
2018-06-04T12:04:30.444Z,22.86
2018-06-04T12:06:58.275Z,22.64
2018-06-04T12:09:26.080Z,23.34
2018-06-04T12:11:53.737Z,22.83
2018-06-04T12:14:21.388Z,23.11
2018-06-04T12:16:49.323Z,22.23
2018-06-04T12:19:16.887Z,22.23
2018-06-04T12:21:44.604Z,22.25
2018-06-04T12:24:12.464Z,22.66
2018-06-04T12:26:40.062Z,22.55
2018-06-04T12:29:07.911Z,22.27
2018-06-04T12:31:35.803Z,22.42
2018-06-04T12:34:03.429Z,22.40
2018-06-04T12:36:31.150Z,22.00
2018-06-04T12:38:59.066Z,22.27
2018-06-04T12:41:26.696Z,22.54
2018-06-04T12:43:54.408Z,22.30
2018-06-04T12:46:22.260Z,21.85
2018-06-04T12:48:49.893Z,21.89
2018-06-04T12:51:17.755Z,22.17
2018-06-04T12:53:45.617Z,21.97
2018-06-04T12:56:13.231Z,22.08
2018-06-04T12:58:40.953Z,22.18
2018-06-04T13:01:08.724Z,22.25
2018-06-04T13:03:36.240Z,22.63
2018-06-04T13:06:04.010Z,22.51
2018-06-04T13:08:31.901Z,22.35
2018-06-04T13:10:59.521Z,22.41
2018-06-04T13:13:27.324Z,22.64
2018-06-04T13:15:55.156Z,23.12
2018-06-04T13:18:22.734Z,22.63
2018-06-04T13:20:50.685Z,22.49
2018-06-04T13:23:18.444Z,22.69
2018-06-04T13:25:46.081Z,22.97
2018-06-04T13:28:13.881Z,22.60
2018-06-04T13:30:41.729Z,22.45
2018-06-04T13:33:09.305Z,22.31
2018-06-04T13:35:37.095Z,22.56
2018-06-04T13:38:04.839Z,22.71
2018-06-04T13:40:32.546Z,22.15
2018-06-04T13:43:00.359Z,22.29
2018-06-04T13:45:28.046Z,22.57
2018-06-04T13:47:55.681Z,22.67
2018-06-04T13:50:23.434Z,22.59
2018-06-04T13:52:51.287Z,22.54
2018-06-04T13:55:18.909Z,22.60
2018-06-04T13:57:46.791Z,22.70
2018-06-04T14:00:14.649Z,22.68
2018-06-04T14:02:42.321Z,23.01
2018-06-04T14:05:10.063Z,22.60
2018-06-04T14:07:37.873Z,22.87
2018-06-04T14:10:05.632Z,23.00
2018-06-04T14:12:33.311Z,22.56
2018-06-04T14:15:00.971Z,22.54
2018-06-04T14:17:28.603Z,22.39
2018-06-04T14:19:56.420Z,22.33
2018-06-04T14:22:24.311Z,22.48
2018-06-04T14:24:51.853Z,22.35
2018-06-04T14:27:19.800Z,22.41
2018-06-04T14:29:47.644Z,22.61
2018-06-04T14:32:15.300Z,22.16
2018-06-04T14:34:43.185Z,22.53
2018-06-04T14:37:10.982Z,22.98
2018-06-04T14:39:38.662Z,23.15
2018-06-04T14:42:06.660Z,22.84
2018-06-04T14:44:34.474Z,23.25
2018-06-04T14:47:02.059Z,23.29
2018-06-04T14:49:29.999Z,23.23
2018-06-04T14:51:57.671Z,23.46
2018-06-04T14:54:25.387Z,22.79
2018-06-04T14:56:53.192Z,22.77
2018-06-04T14:59:21.006Z,23.14
2018-06-04T15:01:48.668Z,23.49
2018-06-04T15:04:16.653Z,23.03
2018-06-04T15:06:44.458Z,23.17
2018-06-04T15:09:12.064Z,23.41
2018-06-04T15:11:39.848Z,23.01
2018-06-04T15:14:07.721Z,23.28
2018-06-04T15:16:35.360Z,23.55
2018-06-04T15:19:03.129Z,23.55
2018-06-04T15:21:30.987Z,23.43
2018-06-04T15:23:58.571Z,23.49
2018-06-04T15:26:26.391Z,23.29
2018-06-04T15:28:54.036Z,23.62
2018-06-04T15:31:21.608Z,23.48
2018-06-04T15:33:49.534Z,23.15
2018-06-04T15:36:17.404Z,23.31
2018-06-04T15:38:45.075Z,23.19
2018-06-04T15:41:12.911Z,22.97
2018-06-04T15:43:40.766Z,23.38
2018-06-04T15:46:08.329Z,23.19
2018-06-04T15:48:36.079Z,23.02
2018-06-04T15:51:03.950Z,22.39
2018-06-04T15:53:31.583Z,22.80
2018-06-04T15:55:59.368Z,22.32
2018-06-04T15:58:27.159Z,22.28
2018-06-04T16:00:54.812Z,22.40
2018-06-04T16:03:22.513Z,22.21
2018-06-04T16:05:50.277Z,22.96
2018-06-04T16:08:17.881Z,22.23
2018-06-04T16:10:45.635Z,22.00
2018-06-04T16:13:13.410Z,21.93
2018-06-04T16:15:41.060Z,22.00
2018-06-04T16:18:08.735Z,22.14
2018-06-04T16:20:39.268Z,22.20
2018-06-04T16:23:06.884Z,22.53
2018-06-04T16:25:34.556Z,22.57
2018-06-04T16:28:02.321Z,23.21
2018-06-04T16:30:29.874Z,23.14
2018-06-04T16:32:57.537Z,23.57
2018-06-04T16:35:25.322Z,23.63
2018-06-04T16:37:52.930Z,23.54
2018-06-04T16:40:20.631Z,23.51
2018-06-04T16:42:48.418Z,23.96
2018-06-04T16:45:16.085Z,23.86
2018-06-04T16:47:43.782Z,24.00
2018-06-04T16:50:11.503Z,24.01
2018-06-04T16:52:39.095Z,24.48
2018-06-04T16:55:07.023Z,24.70
2018-06-04T16:57:34.765Z,24.84
2018-06-04T17:00:02.367Z,24.73
2018-06-04T17:02:30.167Z,24.96
2018-06-04T17:04:57.842Z,25.09
2018-06-04T17:07:25.466Z,24.89
2018-06-04T17:09:53.321Z,24.51
2018-06-04T17:12:20.955Z,24.79
2018-06-04T17:14:48.632Z,24.33
2018-06-04T17:17:16.458Z,24.44
2018-06-04T17:19:44.172Z,24.47
2018-06-04T17:22:11.791Z,24.73
2018-06-04T17:24:39.654Z,25.17
2018-06-04T17:27:13.558Z,25.01
2018-06-04T17:29:40.643Z,25.06
2018-06-04T17:32:07.653Z,25.23
2018-06-04T17:34:34.836Z,25.11
2018-06-04T17:37:01.884Z,25.46
2018-06-04T17:39:28.854Z,25.20
2018-06-04T17:41:56.043Z,25.46
2018-06-04T17:44:23.200Z,25.14
2018-06-04T17:46:50.365Z,25.36
2018-06-04T17:49:17.485Z,25.63
2018-06-04T17:51:44.570Z,25.35
2018-06-04T17:54:11.661Z,25.12
2018-06-04T17:56:38.747Z,25.31
2018-06-04T17:59:05.747Z,25.31
2018-06-04T18:01:35.567Z,25.27
2018-06-04T18:04:02.911Z,25.70
2018-06-04T18:06:30.010Z,25.93
2018-06-04T18:08:57.004Z,25.45
2018-06-04T18:11:24.130Z,26.08
2018-06-04T18:13:51.238Z,26.24
2018-06-04T18:16:18.285Z,25.84
2018-06-04T18:18:45.368Z,26.08
2018-06-04T18:21:12.492Z,26.18
2018-06-04T18:23:39.986Z,25.78
2018-06-04T18:26:07.026Z,26.12
2018-06-04T18:28:34.131Z,26.14
2018-06-04T18:31:01.199Z,26.27
2018-06-04T18:33:28.379Z,26.20
2018-06-04T18:35:55.636Z,25.94
2018-06-04T18:38:22.794Z,26.12
2018-06-04T18:40:50.596Z,26.34
2018-06-04T18:43:17.868Z,26.09
2018-06-04T18:45:45.646Z,26.35
2018-06-04T18:48:13.449Z,26.28
2018-06-04T18:50:41.142Z,26.18
2018-06-04T18:53:08.832Z,26.56
2018-06-04T18:55:36.813Z,26.23
2018-06-04T18:58:05.136Z,26.40
2018-06-04T19:00:32.807Z,26.56
2018-06-04T19:03:00.359Z,26.32
2018-06-04T19:05:28.095Z,26.49
2018-06-04T19:07:55.690Z,26.66
2018-06-04T19:10:23.361Z,26.42
2018-06-04T19:12:51.182Z,26.88
2018-06-04T19:15:18.786Z,27.10
2018-06-04T19:17:46.518Z,27.00
2018-06-04T19:20:13.559Z,27.22
2018-06-04T19:22:41.128Z,27.32
2018-06-04T19:25:08.110Z,27.16
2018-06-04T19:27:35.148Z,27.38
2018-06-04T19:30:02.462Z,27.27
2018-06-04T19:32:29.581Z,27.02
2018-06-04T19:34:56.682Z,27.23
2018-06-04T19:37:24.268Z,27.32
2018-06-04T19:39:51.494Z,27.50
2018-06-04T19:42:18.506Z,27.64
2018-06-04T19:44:46.583Z,27.91
2018-06-04T19:47:14.278Z,27.41
2018-06-04T19:49:41.521Z,27.65
2018-06-04T19:52:08.456Z,27.93
2018-06-04T19:54:36.189Z,27.97
2018-06-04T19:57:03.927Z,27.89
2018-06-04T19:59:31.555Z,28.29
2018-06-04T20:01:59.324Z,27.81
2018-06-04T20:04:27.051Z,28.30
2018-06-04T20:06:54.598Z,28.24
2018-06-04T20:09:22.410Z,28.45
2018-06-04T20:11:49.574Z,28.26
2018-06-04T20:14:16.546Z,28.46
2018-06-04T20:16:44.245Z,28.20
2018-06-04T20:19:11.823Z,28.21
2018-06-04T20:21:39.432Z,28.14
2018-06-04T20:24:07.166Z,28.28
2018-06-04T20:26:34.772Z,28.20
2018-06-04T20:29:02.350Z,28.53
2018-06-04T20:31:29.902Z,28.58
2018-06-04T20:33:57.515Z,28.48
2018-06-04T20:36:25.107Z,28.60
2018-06-04T20:38:52.704Z,28.76
2018-06-04T20:41:20.454Z,29.12
2018-06-04T20:43:48.067Z,28.79
2018-06-04T20:46:15.885Z,28.88
2018-06-04T20:48:43.710Z,28.75
2018-06-04T20:51:11.533Z,28.89
2018-06-04T20:53:39.241Z,28.95
2018-06-04T20:56:07.023Z,29.24
2018-06-04T20:58:34.573Z,28.83
2018-06-04T21:01:02.229Z,29.17
2018-06-04T21:03:29.922Z,29.18
2018-06-04T21:05:57.533Z,29.25
2018-06-04T21:08:25.267Z,29.21
2018-06-04T21:10:53.435Z,29.50
2018-06-04T21:13:21.028Z,29.54
2018-06-04T21:18:58.328Z,29.61
2018-06-04T21:21:25.987Z,29.96
2018-06-04T21:27:03.966Z,29.93
2018-06-04T21:29:31.586Z,30.26
2018-06-04T21:31:59.217Z,29.82
2018-06-04T21:36:33.255Z,30.04
2018-06-04T21:39:00.359Z,29.90
2018-06-04T21:41:27.337Z,30.47
2018-06-04T21:45:08.883Z,30.16
2018-06-04T21:47:36.406Z,30.16
2018-06-04T21:50:04.129Z,30.27
2018-06-04T21:52:31.998Z,30.32
2018-06-04T21:54:59.687Z,30.54
2018-06-04T21:57:27.340Z,30.86
2018-06-04T21:59:55.232Z,31.04
2018-06-04T22:02:22.830Z,31.05
2018-06-04T22:04:50.497Z,30.59
2018-06-04T22:07:17.756Z,31.07
2018-06-04T22:09:44.818Z,31.23
2018-06-04T22:12:11.792Z,30.79
2018-06-04T22:14:39.059Z,31.01
2018-06-04T22:17:06.038Z,31.18
2018-06-04T22:19:32.962Z,31.36
2018-06-04T22:22:00.218Z,31.63
2018-06-04T22:24:27.226Z,31.17
2018-06-04T22:26:54.254Z,31.61
2018-06-04T22:29:21.700Z,31.85
2018-06-04T22:31:48.673Z,31.75
2018-06-04T22:34:16.262Z,31.59
2018-06-04T22:36:44.149Z,31.80
2018-06-04T22:39:11.133Z,31.92
2018-06-04T22:41:38.132Z,31.97
2018-06-04T22:44:05.405Z,32.26
2018-06-04T22:46:33.030Z,32.05
2018-06-04T22:49:04.490Z,32.21
2018-06-04T22:51:32.015Z,32.33
2018-06-04T22:53:59.720Z,32.27
2018-06-04T22:56:26.633Z,32.38
2018-06-04T22:58:54.079Z,32.46
2018-06-04T23:01:21.147Z,32.42
2018-06-04T23:03:48.139Z,32.88
2018-06-04T23:06:15.703Z,32.43
2018-06-04T23:08:42.677Z,32.79
2018-06-04T23:11:10.308Z,32.73
2018-06-04T23:13:38.307Z,32.62
2018-06-04T23:16:05.886Z,32.92
2018-06-04T23:18:34.153Z,33.05
2018-06-04T23:21:02.223Z,32.95
2018-06-04T23:23:29.264Z,33.00
2018-06-04T23:25:56.892Z,33.04
2018-06-04T23:28:24.909Z,33.23
2018-06-04T23:30:52.723Z,33.14
2018-06-04T23:33:20.311Z,33.28
2018-06-04T23:35:48.419Z,33.33
2018-06-04T23:38:15.385Z,33.39
2018-06-04T23:40:43.005Z,33.51
2018-06-04T23:43:11.033Z,33.52
2018-06-04T23:45:38.630Z,33.58
2018-06-04T23:48:06.369Z,33.62
2018-06-04T23:50:34.477Z,33.77
2018-06-04T23:53:02.119Z,33.88
2018-06-04T23:55:29.806Z,33.83
2018-06-04T23:57:57.678Z,33.88
